createdAt,value
2023-02-12T00:01:10.338Z,4.06
2023-02-12T00:05:12.936Z,4.06
2023-02-12T00:07:14.067Z,4.06
2023-02-12T00:09:15.571Z,4.06
2023-02-12T00:11:17.239Z,4.06
2023-02-12T00:13:18.340Z,4.06
2023-02-12T00:15:19.716Z,4.06
2023-02-12T00:17:20.809Z,4.06
2023-02-12T00:21:23.483Z,4.05
2023-02-12T00:23:24.526Z,4.05
2023-02-12T00:25:26.187Z,4.05
2023-02-12T00:27:27.901Z,4.05
2023-02-12T00:31:31.709Z,4.05
2023-02-12T00:33:32.741Z,4.05
2023-02-12T00:35:34.110Z,4.05
2023-02-12T00:37:35.341Z,4.06
2023-02-12T00:39:36.397Z,4.05
2023-02-12T00:41:37.452Z,4.05
2023-02-12T00:43:38.883Z,4.05
2023-02-12T00:47:42.226Z,4.05
2023-02-12T00:49:43.333Z,4.05
2023-02-12T00:53:46.752Z,4.05
2023-02-12T00:55:49.134Z,4.05
2023-02-12T00:57:49.425Z,4.05
2023-02-12T00:59:50.620Z,4.05
2023-02-12T01:03:52.732Z,4.05
2023-02-12T01:05:54.739Z,4.05
2023-02-12T01:07:56.192Z,4.05
2023-02-12T01:09:57.840Z,4.05
2023-02-12T01:11:58.951Z,4.04
2023-02-12T01:14:00.383Z,4.05
2023-02-12T01:16:01.955Z,4.04
2023-02-12T01:20:05.078Z,4.04
2023-02-12T01:22:06.644Z,4.05
2023-02-12T01:24:08.223Z,4.04
2023-02-12T01:26:09.499Z,4.04
2023-02-12T01:30:12.668Z,4.04
2023-02-12T01:32:13.743Z,4.04
2023-02-12T01:34:15.297Z,4.04
2023-02-12T01:36:17.217Z,4.04
2023-02-12T01:38:18.814Z,4.04
2023-02-12T01:40:20.671Z,4.04
2023-02-12T01:42:22.374Z,4.04
2023-02-12T01:46:25.978Z,4.04
2023-02-12T01:48:27.593Z,4.04
2023-02-12T01:50:28.772Z,4.04
2023-02-12T01:52:30.406Z,4.04
2023-02-12T01:54:31.800Z,4.04
2023-02-12T01:56:33.181Z,4.04
2023-02-12T01:58:34.547Z,4.04
2023-02-12T02:02:37.318Z,4.04
2023-02-12T02:04:38.960Z,4.04
2023-02-12T02:06:40.123Z,4.04
2023-02-12T02:08:41.312Z,4.04
2023-02-12T02:12:45.040Z,4.04
2023-02-12T02:14:46.943Z,4.04
2023-02-12T02:18:49.471Z,4.04
2023-02-12T02:20:51.406Z,4.04
2023-02-12T02:22:53.184Z,4.04
2023-02-12T02:23:37.078Z,4.03
2023-02-12T02:25:38.118Z,4.04
2023-02-12T02:27:39.437Z,4.04
2023-02-12T02:29:40.445Z,4.04
2023-02-12T02:31:42.107Z,4.03
2023-02-12T02:33:44.039Z,4.04
2023-02-12T02:35:45.684Z,4.04
2023-02-12T02:39:48.673Z,4.03
2023-02-12T02:41:50.493Z,4.03
2023-02-12T02:43:52.161Z,4.03
2023-02-12T02:45:53.726Z,4.03
2023-02-12T02:49:56.168Z,4.03
2023-02-12T02:51:58.062Z,4.03
2023-02-12T02:56:02.005Z,4.04
2023-02-12T02:58:03.681Z,4.03
2023-02-12T03:00:05.250Z,4.03
2023-02-12T03:02:06.447Z,4.03
2023-02-12T03:06:09.141Z,4.03
2023-02-12T03:08:10.548Z,4.03
2023-02-12T03:10:11.806Z,4.03
2023-02-12T03:12:13.624Z,4.03
2023-02-12T03:14:14.683Z,4.03
2023-02-12T03:16:16.560Z,4.03
2023-02-12T03:18:17.813Z,4.03
2023-02-12T03:22:21.094Z,4.03
2023-02-12T03:24:22.265Z,4.03
2023-02-12T03:26:23.459Z,4.03
2023-02-12T03:28:24.687Z,4.03
2023-02-12T03:32:26.773Z,4.03
2023-02-12T03:34:27.997Z,4.02
2023-02-12T03:36:29.998Z,4.03
2023-02-12T03:38:31.052Z,4.03
2023-02-12T03:40:32.593Z,4.02
2023-02-12T03:42:34.318Z,4.02
2023-02-12T03:44:35.837Z,4.02
2023-02-12T03:48:39.427Z,4.02
2023-02-12T03:50:40.458Z,4.02
2023-02-12T03:54:42.806Z,4.02
2023-02-12T03:56:44.560Z,4.02
2023-02-12T03:58:46.522Z,4.02
2023-02-12T04:00:48.444Z,4.02
2023-02-12T04:04:51.289Z,4.02
2023-02-12T04:06:53.128Z,4.02
2023-02-12T04:08:54.874Z,4.02
2023-02-12T04:10:56.101Z,4.02
2023-02-12T04:14:58.716Z,4.02
2023-02-12T04:17:00.358Z,4.02
2023-02-12T04:19:01.847Z,4.02
2023-02-12T04:21:03.141Z,4.02
2023-02-12T04:23:05.037Z,4.02
2023-02-12T04:25:07.006Z,4.02
2023-02-12T04:27:08.524Z,4.02
2023-02-12T04:31:11.667Z,4.02
2023-02-12T04:33:12.890Z,4.02
2023-02-12T04:35:14.852Z,4.02
2023-02-12T04:37:16.641Z,4.02
2023-02-12T04:39:18.308Z,4.02
2023-02-12T04:41:19.455Z,4.02
2023-02-12T04:43:21.321Z,4.02
2023-02-12T04:47:24.631Z,4.02
2023-02-12T04:49:25.653Z,4.02
2023-02-12T04:51:27.139Z,4.02
2023-02-12T04:53:28.634Z,4.01
2023-02-12T04:57:31.607Z,4.01
2023-02-12T04:59:33.197Z,4.02
2023-02-12T05:01:34.758Z,4.01
2023-02-12T05:03:36.532Z,4.01
2023-02-12T05:05:37.741Z,4.01
2023-02-12T05:07:39.253Z,4.01
2023-02-12T05:09:41.001Z,4.01
2023-02-12T05:13:43.227Z,4.01
2023-02-12T05:15:44.721Z,4.01
2023-02-12T05:17:46.634Z,4.01
2023-02-12T05:19:48.465Z,4.01
2023-02-12T05:21:49.932Z,4.01
2023-02-12T05:23:51.543Z,4.01
2023-02-12T05:25:53.694Z,4.01
2023-02-12T05:29:56.415Z,4.01
2023-02-12T05:31:57.746Z,4.01
2023-02-12T05:33:58.576Z,4.01
2023-02-12T05:36:00.481Z,4.01
2023-02-12T05:38:02.365Z,4.01
2023-02-12T05:40:03.782Z,4.01
2023-02-12T05:42:04.838Z,4.01
2023-02-12T05:46:08.655Z,4.01
2023-02-12T05:48:10.369Z,4.01
2023-02-12T05:50:11.972Z,4.01
2023-02-12T05:52:13.766Z,4
2023-02-12T05:56:16.028Z,4
2023-02-12T05:58:17.721Z,4
2023-02-12T06:00:18.936Z,4
2023-02-12T06:02:20.362Z,4
2023-02-12T06:04:21.470Z,4
2023-02-12T06:08:24.639Z,4
2023-02-12T06:12:27.243Z,4
2023-02-12T06:14:31.531Z,4
2023-02-12T06:16:29.904Z,4
2023-02-12T06:18:31.732Z,4
2023-02-12T06:20:33.506Z,4
2023-02-12T06:22:35.374Z,3.99
2023-02-12T06:24:37.218Z,4
2023-02-12T06:28:40.751Z,4
2023-02-12T06:30:42.008Z,4
2023-02-12T06:32:43.517Z,4
2023-02-12T06:34:45.160Z,4
2023-02-12T06:38:48.553Z,4
2023-02-12T06:40:50.214Z,4
2023-02-12T06:44:53.069Z,4
2023-02-12T06:46:54.455Z,4
2023-02-12T06:48:55.422Z,4
2023-02-12T06:50:57.295Z,4
2023-02-12T06:55:00.907Z,4
2023-02-12T06:57:01.982Z,4
2023-02-12T06:59:03.266Z,4
2023-02-12T07:01:04.414Z,4
2023-02-12T07:03:05.608Z,4
2023-02-12T07:05:06.669Z,4
2023-02-12T07:07:07.934Z,4
2023-02-12T07:11:11.178Z,4
2023-02-12T07:13:12.576Z,4
2023-02-12T07:15:13.779Z,4
2023-02-12T07:17:15.336Z,3.99
2023-02-12T07:21:18.553Z,4
2023-02-12T07:23:19.594Z,3.99
2023-02-12T07:27:23.052Z,3.99
2023-02-12T07:29:24.231Z,3.99
2023-02-12T07:31:25.827Z,3.99
2023-02-12T07:33:27.503Z,4
2023-02-12T07:37:30.609Z,3.99
2023-02-12T07:39:32.167Z,3.99
2023-02-12T07:41:33.359Z,3.99
2023-02-12T07:43:34.558Z,3.99
2023-02-12T07:45:35.664Z,3.99
2023-02-12T07:47:37.112Z,3.99
2023-02-12T07:49:38.849Z,3.99
2023-02-12T07:53:42.104Z,3.99
2023-02-12T07:55:43.100Z,3.99
2023-02-12T07:57:44.289Z,3.99
2023-02-12T07:59:46.139Z,3.99
2023-02-12T08:03:48.894Z,3.99
2023-02-12T08:05:50.733Z,3.98
2023-02-12T08:07:52.600Z,3.99
2023-02-12T08:09:54.453Z,3.98
2023-02-12T08:11:55.905Z,3.99
2023-02-12T08:13:57.814Z,3.99
2023-02-12T08:15:59.590Z,3.99
2023-02-12T08:20:02.289Z,3.98
2023-02-12T08:22:03.841Z,3.98
2023-02-12T08:26:06.010Z,3.98
2023-02-12T08:28:07.241Z,3.98
2023-02-12T08:30:08.947Z,3.99
2023-02-12T08:32:10.479Z,3.99
2023-02-12T08:36:12.689Z,3.99
2023-02-12T08:38:13.934Z,3.99
2023-02-12T08:40:15.347Z,3.99
2023-02-12T08:42:16.815Z,3.99
2023-02-12T08:46:19.733Z,4
2023-02-12T08:48:21.145Z,4
2023-02-12T08:50:22.339Z,4
2023-02-12T08:52:24.047Z,4
2023-02-12T08:54:25.129Z,4
2023-02-12T08:56:26.881Z,4.01
2023-02-12T08:58:28.267Z,4.01
2023-02-12T09:02:30.811Z,4.02
2023-02-12T09:04:31.970Z,4.01
2023-02-12T09:06:33.648Z,4.02
2023-02-12T09:08:34.986Z,4.02
2023-02-12T09:09:18.808Z,4.04
2023-02-12T09:11:20.411Z,4.03
2023-02-12T09:13:21.537Z,4.04
2023-02-12T09:15:23.092Z,4.05
2023-02-12T09:17:24.217Z,4.06
2023-02-12T09:19:25.578Z,4.06
2023-02-12T09:21:27.254Z,4.06
2023-02-12T09:23:28.901Z,4.06
2023-02-12T09:25:30.337Z,4.07
2023-02-12T09:29:32.590Z,4.08
2023-02-12T09:31:34.609Z,4.09
2023-02-12T09:33:35.473Z,4.08
2023-02-12T09:35:37.112Z,4.09
2023-02-12T09:39:39.786Z,4.09
2023-02-12T09:41:41.485Z,4.1
2023-02-12T09:45:43.973Z,4.1
2023-02-12T09:47:45.459Z,4.11
2023-02-12T09:49:46.680Z,4.1
2023-02-12T09:51:49.765Z,4.11
2023-02-12T09:55:51.751Z,4.12
2023-02-12T09:57:54.831Z,4.12
2023-02-12T09:59:54.543Z,4.12
2023-02-12T10:01:56.296Z,4.13
2023-02-12T10:03:58.139Z,4.13
2023-02-12T10:05:59.209Z,4.14
2023-02-12T10:08:00.056Z,4.14
2023-02-12T10:12:02.574Z,4.15
2023-02-12T10:14:04.715Z,4.15
2023-02-12T10:16:06.202Z,4.16
2023-02-12T10:18:07.827Z,4.16
2023-02-12T10:22:10.456Z,4.16
2023-02-12T10:24:12.114Z,4.16
2023-02-12T10:28:15.062Z,4.17
2023-02-12T10:30:16.732Z,4.17
2023-02-12T10:32:17.737Z,4.18
2023-02-12T10:34:19.049Z,4.18
2023-02-12T10:38:21.829Z,4.18
2023-02-12T10:40:22.882Z,4.18
2023-02-12T10:44:27.185Z,4.18
2023-02-12T10:46:28.559Z,4.18
2023-02-12T10:48:30.527Z,4.19
2023-02-12T10:50:31.614Z,4.19
2023-02-12T10:54:34.338Z,4.19
2023-02-12T10:56:35.566Z,4.19
2023-02-12T10:58:37.144Z,4.19
2023-02-12T11:00:38.097Z,4.19
2023-02-12T11:04:40.486Z,4.19
2023-02-12T11:06:41.802Z,4.19
2023-02-12T11:08:42.797Z,4.2
2023-02-12T11:10:44.357Z,4.19
2023-02-12T11:12:45.467Z,4.19
2023-02-12T11:16:48.375Z,4.2
2023-02-12T11:18:50.387Z,4.19
2023-02-12T11:20:51.489Z,4.2
2023-02-12T11:22:52.855Z,4.2
2023-02-12T11:26:56.090Z,4.2
2023-02-12T11:28:57.592Z,4.2
2023-02-12T11:30:59.031Z,4.2
2023-02-12T11:33:00.527Z,4.2
2023-02-12T11:37:03.310Z,4.2
2023-02-12T11:39:05.082Z,4.2
2023-02-12T11:41:06.930Z,4.2
2023-02-12T11:43:08.380Z,4.2
2023-02-12T11:45:10.039Z,4.21
2023-02-12T11:47:11.343Z,4.2
2023-02-12T11:49:12.479Z,4.2
2023-02-12T11:53:15.674Z,4.18
2023-02-12T11:55:26.328Z,4.19
2023-02-12T11:59:19.947Z,4.19
2023-02-12T12:01:21.765Z,4.19
2023-02-12T12:03:23.385Z,4.19
2023-02-12T12:05:24.636Z,4.19
2023-02-12T12:09:27.204Z,4.19
2023-02-12T12:11:28.975Z,4.19
2023-02-12T12:13:30.367Z,4.18
2023-02-12T12:15:31.479Z,4.18
2023-02-12T12:19:34.848Z,4.18
2023-02-12T12:21:36.393Z,4.18
2023-02-12T12:23:38.033Z,4.18
2023-02-12T12:25:39.404Z,4.18
2023-02-12T12:27:40.678Z,4.18
2023-02-12T12:29:41.854Z,4.18
2023-02-12T12:31:43.338Z,4.18
2023-02-12T12:35:45.461Z,4.18
2023-02-12T12:37:46.787Z,4.18
2023-02-12T12:39:48.112Z,4.18
2023-02-12T12:41:49.650Z,4.18
2023-02-12T12:43:51.314Z,4.17
2023-02-12T12:45:53.390Z,4.18
2023-02-12T12:47:55.338Z,4.18
2023-02-12T12:51:58.432Z,4.17
2023-02-12T12:53:59.613Z,4.17
2023-02-12T12:56:00.758Z,4.17
2023-02-12T12:58:03.331Z,4.17
2023-02-12T13:00:04.586Z,4.17
2023-02-12T13:02:05.899Z,4.17
2023-02-12T13:04:07.410Z,4.17
2023-02-12T13:08:10.085Z,4.17
2023-02-12T13:10:11.091Z,4.17
2023-02-12T13:12:12.662Z,4.17
2023-02-12T13:14:14.002Z,4.17
2023-02-12T13:18:16.846Z,4.17
2023-02-12T13:20:17.817Z,4.17
2023-02-12T13:22:19.296Z,4.17
2023-02-12T13:24:20.636Z,4.17
2023-02-12T13:26:22.696Z,4.16
2023-02-12T13:28:24.116Z,4.16
2023-02-12T13:30:25.255Z,4.17
2023-02-12T13:34:27.095Z,4.16
2023-02-12T13:36:28.363Z,4.16
2023-02-12T13:38:30.089Z,4.17
2023-02-12T13:40:31.908Z,4.17
2023-02-12T13:42:33.121Z,4.16
2023-02-12T13:44:34.354Z,4.16
2023-02-12T13:46:35.436Z,4.16
2023-02-12T13:50:38.246Z,4.17
2023-02-12T13:52:39.925Z,4.16
2023-02-12T13:54:41.273Z,4.16
2023-02-12T13:56:42.596Z,4.16
2023-02-12T14:00:45.438Z,4.16
2023-02-12T14:02:47.519Z,4.16
2023-02-12T14:04:48.907Z,4.16
2023-02-12T14:06:50.788Z,4.16
2023-02-12T14:08:51.085Z,4.16
2023-02-12T14:10:52.821Z,4.16
2023-02-12T14:12:53.825Z,4.16
2023-02-12T14:16:57.016Z,4.16
2023-02-12T14:18:58.749Z,4.16
2023-02-12T14:21:00.429Z,4.16
2023-02-12T14:23:02.055Z,4.16
2023-02-12T14:25:03.399Z,4.16
2023-02-12T14:27:05.133Z,4.16
2023-02-12T14:29:06.325Z,4.16
2023-02-12T14:33:09.172Z,4.16
2023-02-12T14:35:10.477Z,4.16
2023-02-12T14:37:12.307Z,4.16
2023-02-12T14:39:13.821Z,4.16
2023-02-12T14:43:17.110Z,4.16
2023-02-12T14:45:18.443Z,4.16
2023-02-12T14:47:19.916Z,4.16
2023-02-12T14:49:21.409Z,4.16
2023-02-12T14:51:22.738Z,4.15
2023-02-12T14:53:23.878Z,4.16
2023-02-12T14:55:24.824Z,4.15
2023-02-12T14:59:27.274Z,4.16
2023-02-12T15:01:28.906Z,4.15
2023-02-12T15:05:31.928Z,4.16
2023-02-12T15:07:33.055Z,4.15
2023-02-12T15:09:34.087Z,4.15
2023-02-12T15:11:35.172Z,4.15
2023-02-12T15:15:38.227Z,4.15
2023-02-12T15:17:39.567Z,4.15
2023-02-12T15:19:40.784Z,4.15
2023-02-12T15:21:42.071Z,4.15
2023-02-12T15:23:43.059Z,4.15
2023-02-12T15:25:44.263Z,4.15
2023-02-12T15:27:46.090Z,4.14
2023-02-12T15:31:48.902Z,4.15
2023-02-12T15:33:50.380Z,4.15
2023-02-12T15:35:52.238Z,4.14
2023-02-12T15:37:53.398Z,4.14
2023-02-12T15:41:55.348Z,4.15
2023-02-12T15:43:57.011Z,4.14
2023-02-12T15:45:59.127Z,4.14
2023-02-12T15:48:00.379Z,4.14
2023-02-12T15:50:02.194Z,4.14
2023-02-12T15:52:03.222Z,4.14
2023-02-12T15:54:04.227Z,4.14
2023-02-12T15:54:48.046Z,4.14
2023-02-12T15:56:49.390Z,4.14
2023-02-12T15:58:50.868Z,4.14
2023-02-12T16:00:52.706Z,4.14
2023-02-12T16:02:54.255Z,4.14
2023-02-12T16:04:55.216Z,4.14
2023-02-12T16:08:58.223Z,4.14
2023-02-12T16:10:59.972Z,4.14
2023-02-12T16:13:01.499Z,4.14
2023-02-12T16:15:02.842Z,4.14
2023-02-12T16:19:06.449Z,4.14
2023-02-12T16:21:07.635Z,4.14
2023-02-12T16:25:10.648Z,4.13
2023-02-12T16:27:12.529Z,4.14
2023-02-12T16:29:13.757Z,4.14
2023-02-12T16:31:15.041Z,4.14
2023-02-12T16:33:16.179Z,4.14
2023-02-12T16:35:17.726Z,4.13
2023-02-12T16:37:18.742Z,4.14
2023-02-12T16:41:21.732Z,4.13
2023-02-12T16:43:23.598Z,4.13
2023-02-12T16:45:24.757Z,4.13
2023-02-12T16:47:26.051Z,4.14
2023-02-12T16:51:29.050Z,4.13
2023-02-12T16:53:30.186Z,4.13
2023-02-12T16:55:31.426Z,4.13
2023-02-12T16:57:33.209Z,4.13
2023-02-12T17:01:35.708Z,4.13
2023-02-12T17:03:37.391Z,4.13
2023-02-12T17:05:38.813Z,4.13
2023-02-12T17:07:40.017Z,4.13
2023-02-12T17:09:41.838Z,4.13
2023-02-12T17:11:43.482Z,4.13
2023-02-12T17:13:44.798Z,4.13
2023-02-12T17:17:46.957Z,4.13
2023-02-12T17:19:48.363Z,4.13
2023-02-12T17:21:49.529Z,4.13
2023-02-12T17:23:50.615Z,4.12
2023-02-12T17:25:51.829Z,4.13
2023-02-12T17:29:54.355Z,4.12
2023-02-12T17:33:57.720Z,4.13
2023-02-12T17:35:58.717Z,4.13
2023-02-12T17:37:59.844Z,4.12
2023-02-12T17:40:00.842Z,4.12
2023-02-12T17:42:02.587Z,4.12
2023-02-12T17:44:04.141Z,4.12
2023-02-12T17:46:07.873Z,4.12
2023-02-12T17:50:07.836Z,4.12
2023-02-12T17:52:09.619Z,4.12
2023-02-12T17:54:10.772Z,4.12
2023-02-12T17:56:12.617Z,4.12
2023-02-12T18:00:15.231Z,4.12
2023-02-12T18:02:16.747Z,4.12
2023-02-12T18:06:19.913Z,4.12
2023-02-12T18:08:21.028Z,4.12
2023-02-12T18:10:22.441Z,4.12
2023-02-12T18:12:24.430Z,4.12
2023-02-12T18:16:27.392Z,4.12
2023-02-12T18:18:28.474Z,4.12
2023-02-12T18:20:30.304Z,4.12
2023-02-12T18:22:31.580Z,4.12
2023-02-12T18:24:33.529Z,4.12
2023-02-12T18:26:34.954Z,4.12
2023-02-12T18:28:36.203Z,4.12
2023-02-12T18:32:39.429Z,4.11
2023-02-12T18:34:40.952Z,4.11
2023-02-12T18:36:42.953Z,4.11
2023-02-12T18:38:44.014Z,4.11
2023-02-12T18:42:46.751Z,4.11
2023-02-12T18:44:48.131Z,4.11
2023-02-12T18:46:49.384Z,4.11
2023-02-12T18:48:51.101Z,4.11
2023-02-12T18:50:52.839Z,4.11
2023-02-12T18:52:54.687Z,4.11
2023-02-12T18:54:56.611Z,4.11
2023-02-12T18:58:59.858Z,4.11
2023-02-12T19:01:01.502Z,4.11
2023-02-12T19:03:02.500Z,4.11
2023-02-12T19:05:04.231Z,4.11
2023-02-12T19:07:05.315Z,4.11
2023-02-12T19:09:06.464Z,4.11
2023-02-12T19:11:07.482Z,4.1
2023-02-12T19:15:10.348Z,4.11
2023-02-12T19:17:12.320Z,4.11
2023-02-12T19:19:14.031Z,4.1
2023-02-12T19:21:15.277Z,4.11
2023-02-12T19:25:17.540Z,4.1
2023-02-12T19:27:19.172Z,4.11
2023-02-12T19:29:20.531Z,4.1
2023-02-12T19:31:21.976Z,4.1
2023-02-12T19:33:23.091Z,4.1
2023-02-12T19:35:25.069Z,4.1
2023-02-12T19:37:26.939Z,4.1
2023-02-12T19:39:28.135Z,4.1
2023-02-12T19:43:30.195Z,4.1
2023-02-12T19:45:32.066Z,4.1
2023-02-12T19:47:33.910Z,4.1
2023-02-12T19:49:35.240Z,4.1
2023-02-12T19:51:37.043Z,4.1
2023-02-12T19:53:38.079Z,4.1
2023-02-12T19:57:41.567Z,4.1
2023-02-12T19:59:43.077Z,4.1
2023-02-12T20:01:45.152Z,4.1
2023-02-12T20:03:46.612Z,4.1
2023-02-12T20:05:47.925Z,4.1
2023-02-12T20:07:49.255Z,4.1
2023-02-12T20:09:51.143Z,4.1
2023-02-12T20:11:52.936Z,4.1
2023-02-12T20:13:54.820Z,4.1
2023-02-12T20:15:56.123Z,4.1
2023-02-12T20:17:58.031Z,4.1
2023-02-12T20:19:59.842Z,4.1
2023-02-12T20:24:03.330Z,4.1
2023-02-12T20:26:04.490Z,4.1
2023-02-12T20:30:07.150Z,4.1
2023-02-12T20:32:08.540Z,4.1
2023-02-12T20:34:09.905Z,4.1
2023-02-12T20:36:10.912Z,4.1
2023-02-12T20:40:13.380Z,4.1
2023-02-12T20:42:14.524Z,4.09
2023-02-12T20:44:15.919Z,4.09
2023-02-12T20:46:17.074Z,4.09
2023-02-12T20:48:19.016Z,4.1
2023-02-12T20:50:20.620Z,4.09
2023-02-12T20:52:21.942Z,4.09
2023-02-12T20:56:24.877Z,4.09
2023-02-12T20:58:25.962Z,4.09
2023-02-12T21:00:27.916Z,4.09
2023-02-12T21:02:29.353Z,4.09
2023-02-12T21:06:31.899Z,4.09
2023-02-12T21:08:33.599Z,4.09
2023-02-12T21:10:35.504Z,4.09
2023-02-12T21:12:37.193Z,4.09
2023-02-12T21:14:38.833Z,4.09
2023-02-12T21:16:40.713Z,4.09
2023-02-12T21:18:42.265Z,4.09
2023-02-12T21:22:45.110Z,4.09
2023-02-12T21:24:46.242Z,4.09
2023-02-12T21:26:47.317Z,4.09
2023-02-12T21:28:48.613Z,4.09
2023-02-12T21:30:49.744Z,4.08
2023-02-12T21:32:51.587Z,4.08
2023-02-12T21:34:52.858Z,4.09
2023-02-12T21:38:55.872Z,4.08
2023-02-12T21:40:57.247Z,4.08
2023-02-12T21:42:58.398Z,4.08
2023-02-12T21:44:59.829Z,4.08
2023-02-12T21:49:02.226Z,4.08
2023-02-12T21:51:03.407Z,4.08
2023-02-12T21:55:06.274Z,4.08
2023-02-12T21:57:08.205Z,4.08
2023-02-12T21:59:09.561Z,4.08
2023-02-12T22:01:10.860Z,4.08
2023-02-12T22:05:13.872Z,4.08
2023-02-12T22:07:15.835Z,4.08
2023-02-12T22:09:16.867Z,4.08
2023-02-12T22:11:18.174Z,4.08
2023-02-12T22:13:19.676Z,4.08
2023-02-12T22:15:21.258Z,4.08
2023-02-12T22:17:22.914Z,4.08
2023-02-12T22:21:26.370Z,4.08
2023-02-12T22:23:28.152Z,4.08
2023-02-12T22:25:29.240Z,4.08
2023-02-12T22:27:30.455Z,4.08
2023-02-12T22:31:33.077Z,4.08
2023-02-12T22:33:34.396Z,4.08
2023-02-12T22:35:44.559Z,4.08
2023-02-12T22:37:37.371Z,4.08
2023-02-12T22:39:38.429Z,4.08
2023-02-12T22:40:22.354Z,4.07
2023-02-12T22:42:23.976Z,4.08
2023-02-12T22:44:25.780Z,4.08
2023-02-12T22:48:28.111Z,4.08
2023-02-12T22:50:29.748Z,4.08
2023-02-12T22:52:31.015Z,4.07
2023-02-12T22:54:32.682Z,4.07
2023-02-12T22:58:36.152Z,4.07
2023-02-12T23:00:37.869Z,4.07
2023-02-12T23:02:39.778Z,4.07
2023-02-12T23:04:40.948Z,4.07
2023-02-12T23:08:44.734Z,4.07
2023-02-12T23:10:45.778Z,4.07
2023-02-12T23:12:46.895Z,4.07
2023-02-12T23:14:48.226Z,4.07
2023-02-12T23:16:49.570Z,4.07
2023-02-12T23:18:51.137Z,4.07
2023-02-12T23:20:52.962Z,4.07
2023-02-12T23:24:56.083Z,4.07
2023-02-12T23:26:57.475Z,4.07
2023-02-12T23:28:59.404Z,4.07
2023-02-12T23:31:00.959Z,4.07
2023-02-12T23:33:01.848Z,4.07
2023-02-12T23:35:03.490Z,4.07
2023-02-12T23:37:04.828Z,4.07
2023-02-12T23:41:08.595Z,4.06
2023-02-12T23:43:09.899Z,4.07
2023-02-12T23:45:11.811Z,4.06
2023-02-12T23:47:13.032Z,4.06
2023-02-12T23:49:14.653Z,4.06
2023-02-12T23:51:16.224Z,4.07
2023-02-12T23:53:18.000Z,4.06
2023-02-12T23:57:21.050Z,4.06
2023-02-12T23:59:22.852Z,4.06
